createdAt,value
2023-04-23T00:01:57.570Z,8.11
2023-04-23T00:04:26.347Z,8.15
2023-04-23T00:06:54.625Z,8.19
2023-04-23T00:09:22.156Z,8.26
2023-04-23T00:11:50.049Z,8.31
2023-04-23T00:14:17.712Z,8.39
2023-04-23T00:16:45.350Z,8.42
2023-04-23T00:19:12.937Z,8.46
2023-04-23T00:21:40.253Z,8.47
2023-04-23T00:24:08.226Z,8.44
2023-04-23T00:26:35.848Z,8.40
2023-04-23T00:29:03.579Z,8.40
2023-04-23T00:31:31.443Z,8.39
2023-04-23T00:33:58.534Z,8.35
2023-04-23T00:36:26.466Z,8.29
2023-04-23T00:38:54.159Z,8.23
2023-04-23T00:41:21.779Z,8.20
2023-04-23T00:43:49.175Z,8.16
2023-04-23T00:46:16.980Z,8.12
2023-04-23T00:48:44.763Z,8.08
2023-04-23T00:51:12.428Z,8.05
2023-04-23T00:53:40.390Z,8.04
2023-04-23T00:56:08.705Z,8.04
2023-04-23T00:58:36.700Z,8.00
2023-04-23T01:01:05.137Z,7.95
2023-04-23T01:03:34.744Z,7.91
2023-04-23T01:06:02.865Z,7.86
2023-04-23T01:08:30.758Z,7.85
2023-04-23T01:10:58.471Z,7.87
2023-04-23T01:13:29.845Z,7.87
2023-04-23T01:15:57.830Z,7.89
2023-04-23T01:18:25.281Z,7.93
2023-04-23T01:20:53.605Z,7.94
2023-04-23T01:23:21.938Z,7.95
2023-04-23T01:25:49.489Z,7.96
2023-04-23T01:28:16.989Z,7.99
2023-04-23T01:30:44.456Z,7.99
2023-04-23T01:33:12.449Z,7.97
2023-04-23T01:35:40.859Z,7.92
2023-04-23T01:38:11.114Z,7.85
2023-04-23T01:40:39.213Z,7.81
2023-04-23T01:43:07.672Z,7.78
2023-04-23T01:45:35.664Z,7.77
2023-04-23T01:48:03.788Z,7.76
2023-04-23T01:50:31.290Z,7.74
2023-04-23T01:52:58.822Z,7.68
2023-04-23T01:55:26.854Z,7.70
2023-04-23T01:57:54.016Z,7.75
2023-04-23T02:00:21.861Z,7.75
2023-04-23T02:02:50.674Z,7.77
2023-04-23T02:05:18.954Z,7.82
2023-04-23T02:07:47.383Z,7.79
2023-04-23T02:10:15.329Z,7.77
2023-04-23T02:12:42.907Z,7.80
2023-04-23T02:15:10.367Z,7.85
2023-04-23T02:17:40.169Z,7.88
2023-04-23T02:20:12.083Z,7.91
2023-04-23T02:22:40.378Z,7.93
2023-04-23T02:25:08.480Z,7.94
2023-04-23T02:27:36.350Z,7.94
2023-04-23T02:30:03.906Z,7.95
2023-04-23T02:32:31.524Z,7.94
2023-04-23T02:34:59.894Z,7.95
2023-04-23T02:37:27.621Z,7.94
2023-04-23T02:39:55.331Z,7.91
2023-04-23T02:42:22.849Z,7.85
2023-04-23T02:44:50.804Z,7.84
2023-04-23T02:47:18.465Z,7.88
2023-04-23T02:49:45.968Z,7.88
2023-04-23T02:52:13.889Z,7.87
2023-04-23T02:54:41.737Z,7.85
2023-04-23T02:57:09.652Z,7.88
2023-04-23T02:59:37.974Z,7.92
2023-04-23T03:02:06.586Z,7.96
2023-04-23T03:04:35.924Z,8.02
2023-04-23T03:07:04.059Z,8.09
2023-04-23T03:09:33.400Z,8.13
2023-04-23T03:12:00.749Z,8.16
2023-04-23T03:14:28.712Z,8.19
2023-04-23T03:16:57.203Z,8.15
2023-04-23T03:25:09.083Z,7.93
2023-04-23T03:27:39.027Z,7.85
2023-04-23T03:30:09.368Z,7.82
2023-04-23T03:32:37.658Z,7.78
2023-04-23T03:35:06.327Z,7.76
2023-04-23T03:37:34.485Z,7.80
2023-04-23T03:40:07.981Z,7.86
2023-04-23T03:42:37.681Z,7.91
2023-04-23T03:45:06.902Z,7.93
2023-04-23T03:47:37.149Z,7.99
2023-04-23T03:50:05.406Z,8.09
2023-04-23T03:52:33.567Z,8.14
2023-04-23T03:55:02.124Z,8.18
2023-04-23T03:57:39.831Z,8.22
2023-04-23T04:00:19.922Z,8.26
2023-04-23T04:02:47.324Z,8.27
2023-04-23T04:05:15.281Z,8.32
2023-04-23T04:07:43.508Z,8.37
2023-04-23T04:10:11.525Z,8.40
2023-04-23T04:12:39.936Z,8.49
2023-04-23T04:15:10.441Z,8.59
2023-04-23T04:17:38.598Z,8.64
2023-04-23T04:20:08.819Z,8.68
2023-04-23T04:22:36.415Z,8.71
2023-04-23T04:25:05.436Z,8.74
2023-04-23T04:27:37.695Z,8.82
2023-04-23T04:30:06.389Z,8.90
2023-04-23T04:32:34.575Z,9.03
2023-04-23T04:35:02.906Z,9.13
2023-04-23T04:37:30.624Z,9.20
2023-04-23T04:39:57.763Z,9.24
2023-04-23T04:42:25.603Z,9.24
2023-04-23T04:44:53.916Z,9.33
2023-04-23T04:47:22.117Z,9.41
2023-04-23T04:49:49.990Z,9.46
2023-04-23T04:52:17.739Z,9.52
2023-04-23T04:54:45.864Z,9.57
2023-04-23T04:57:13.957Z,9.72
2023-04-23T04:59:42.170Z,9.82
2023-04-23T05:02:10.528Z,9.94
2023-04-23T05:04:38.619Z,10.03
2023-04-23T05:07:06.712Z,10.16
2023-04-23T05:09:34.730Z,10.30
2023-04-23T05:12:02.216Z,10.50
2023-04-23T05:14:30.882Z,10.74
2023-04-23T05:16:58.974Z,10.96
2023-04-23T05:19:26.600Z,11.20
2023-04-23T05:21:54.505Z,11.46
2023-04-23T05:24:22.022Z,11.66
2023-04-23T05:26:50.105Z,11.81
2023-04-23T05:29:19.519Z,11.95
2023-04-23T05:31:47.017Z,12.04
2023-04-23T05:34:14.922Z,12.12
2023-04-23T05:36:42.596Z,12.23
2023-04-23T05:39:10.491Z,12.33
2023-04-23T05:41:38.484Z,12.46
2023-04-23T05:44:05.996Z,12.68
2023-04-23T05:46:33.581Z,12.87
2023-04-23T05:49:01.040Z,13.05
2023-04-23T05:51:28.544Z,13.27
2023-04-23T05:53:55.705Z,13.41
2023-04-23T05:56:23.611Z,13.49
2023-04-23T05:58:51.017Z,13.71
2023-04-23T06:01:19.086Z,13.75
2023-04-23T06:03:48.031Z,13.82
2023-04-23T06:06:16.236Z,13.86
2023-04-23T06:08:44.747Z,13.79
2023-04-23T06:11:13.866Z,13.68
2023-04-23T06:13:44.056Z,13.66
2023-04-23T06:16:12.188Z,13.60
2023-04-23T06:18:40.268Z,13.52
2023-04-23T06:21:07.922Z,13.33
2023-04-23T06:23:36.873Z,13.24
2023-04-23T06:26:05.782Z,13.20
2023-04-23T06:28:33.729Z,13.12
2023-04-23T06:31:22.254Z,13.22
2023-04-23T06:33:51.163Z,13.34
2023-04-23T06:36:19.387Z,13.46
2023-04-23T06:38:47.608Z,13.47
2023-04-23T06:41:15.488Z,13.52
2023-04-23T06:43:43.191Z,13.61
2023-04-23T06:46:31.975Z,13.52
2023-04-23T06:48:59.736Z,13.34
2023-04-23T06:51:27.965Z,13.16
2023-04-23T06:53:56.338Z,13.06
2023-04-23T06:56:24.124Z,13.06
2023-04-23T06:58:51.490Z,13.07
2023-04-23T07:01:21.453Z,13.05
2023-04-23T07:03:51.999Z,13.04
2023-04-23T07:06:19.863Z,13.04
2023-04-23T07:08:47.696Z,13.02
2023-04-23T07:11:15.403Z,13.02
2023-04-23T07:13:43.781Z,13.08
2023-04-23T07:16:12.080Z,13.17
2023-04-23T07:18:40.345Z,13.35
2023-04-23T07:21:08.827Z,13.61
2023-04-23T07:23:36.896Z,13.89
2023-04-23T07:26:05.092Z,14.27
2023-04-23T07:28:32.946Z,14.63
2023-04-23T07:31:00.839Z,14.88
2023-04-23T07:33:29.381Z,15.14
2023-04-23T07:35:57.830Z,15.47
2023-04-23T07:38:26.200Z,15.78
2023-04-23T07:40:53.738Z,16.09
2023-04-23T07:43:22.236Z,16.36
2023-04-23T07:45:50.861Z,16.54
2023-04-23T07:48:18.736Z,16.70
2023-04-23T07:50:46.969Z,16.80
2023-04-23T07:53:15.234Z,16.97
2023-04-23T07:55:43.165Z,17.06
2023-04-23T07:58:11.082Z,17.12
2023-04-23T08:00:39.884Z,17.31
2023-04-23T08:03:07.988Z,17.58
2023-04-23T08:05:38.719Z,17.94
2023-04-23T08:08:06.539Z,18.28
2023-04-23T08:10:34.473Z,18.50
2023-04-23T08:13:03.203Z,18.97
2023-04-23T08:15:31.649Z,19.25
2023-04-23T08:17:59.807Z,19.30
2023-04-23T08:20:27.711Z,19.34
2023-04-23T08:22:56.681Z,19.35
2023-04-23T08:25:24.414Z,19.31
2023-04-23T08:27:52.681Z,19.11
2023-04-23T08:30:20.255Z,18.93
2023-04-23T08:32:51.104Z,18.75
2023-04-23T08:35:19.651Z,18.56
2023-04-23T08:37:47.100Z,18.30
2023-04-23T08:40:15.175Z,18.23
2023-04-23T08:43:11.690Z,18.37
2023-04-23T08:45:41.727Z,18.43
2023-04-23T08:48:09.687Z,18.37
2023-04-23T08:50:38.465Z,18.26
2023-04-23T08:53:07.492Z,18.22
2023-04-23T08:55:36.725Z,18.12
2023-04-23T08:58:06.878Z,18.06
2023-04-23T09:00:35.746Z,18.06
2023-04-23T09:03:04.783Z,18.02
2023-04-23T09:05:32.646Z,18.05
2023-04-23T09:08:00.126Z,18.17
2023-04-23T09:10:27.560Z,18.29
2023-04-23T09:12:55.503Z,18.39
2023-04-23T09:15:23.297Z,18.42
2023-04-23T09:17:53.014Z,18.43
2023-04-23T09:20:21.045Z,18.23
2023-04-23T09:22:49.655Z,18.10
2023-04-23T09:25:22.125Z,18.10
2023-04-23T09:27:50.956Z,18.16
2023-04-23T09:30:19.821Z,18.12
2023-04-23T09:32:48.150Z,17.91
2023-04-23T09:35:17.718Z,17.67
2023-04-23T09:37:49.517Z,17.50
2023-04-23T09:40:20.368Z,17.52
2023-04-23T09:42:54.354Z,17.61
2023-04-23T09:45:22.826Z,17.67
2023-04-23T09:47:55.847Z,17.63
2023-04-23T09:50:40.323Z,17.50
2023-04-23T09:53:09.312Z,17.41
2023-04-23T09:55:39.486Z,17.44
2023-04-23T09:58:11.445Z,17.45
2023-04-23T10:00:40.253Z,17.45
2023-04-23T10:03:09.087Z,17.30
2023-04-23T10:08:16.129Z,17.02
2023-04-23T10:10:57.406Z,16.89
2023-04-23T10:13:28.813Z,16.84
2023-04-23T10:16:07.099Z,16.78
2023-04-23T10:18:42.231Z,16.74
2023-04-23T10:21:12.259Z,16.73
2023-04-23T10:23:40.341Z,16.76
2023-04-23T10:26:09.696Z,16.76
2023-04-23T10:28:37.734Z,16.74
2023-04-23T10:31:05.821Z,16.80
2023-04-23T10:33:42.671Z,16.88
2023-04-23T10:36:17.721Z,16.96
2023-04-23T10:38:57.160Z,17.07
2023-04-23T10:41:28.167Z,17.04
2023-04-23T10:43:56.501Z,17.05
2023-04-23T10:46:31.868Z,17.05
2023-04-23T10:49:16.716Z,16.97
2023-04-23T10:54:20.256Z,16.57
2023-04-23T10:56:49.412Z,16.39
2023-04-23T10:59:20.797Z,16.21
2023-04-23T11:01:49.612Z,16.20
2023-04-23T11:04:28.918Z,16.15
2023-04-23T11:07:05.408Z,16.14
2023-04-23T11:09:49.167Z,16.19
2023-04-23T11:12:30.492Z,16.25
2023-04-23T11:15:01.466Z,16.24
2023-04-23T11:17:32.669Z,16.20
2023-04-23T11:20:14.412Z,16.26
2023-04-23T11:22:44.156Z,16.28
2023-04-23T11:25:13.029Z,16.34
2023-04-23T11:27:44.847Z,16.36
2023-04-23T11:30:14.555Z,16.40
2023-04-23T11:32:42.597Z,16.51
2023-04-23T11:35:13.618Z,16.62
2023-04-23T11:37:42.579Z,16.70
2023-04-23T11:40:11.685Z,16.74
2023-04-23T11:42:53.712Z,16.64
2023-04-23T11:45:25.733Z,16.36
2023-04-23T11:47:57.372Z,16.11
2023-04-23T11:50:26.198Z,16.03
2023-04-23T11:52:54.044Z,15.99
2023-04-23T11:55:22.367Z,15.88
2023-04-23T11:57:51.008Z,15.74
2023-04-23T12:00:22.782Z,15.65
2023-04-23T12:03:01.222Z,15.60
2023-04-23T12:05:29.261Z,15.58
2023-04-23T12:08:10.852Z,15.59
2023-04-23T12:11:02.174Z,15.58
2023-04-23T12:13:33.807Z,15.48
2023-04-23T12:16:04.066Z,15.47
2023-04-23T12:18:42.681Z,15.49
2023-04-23T12:21:13.698Z,15.48
2023-04-23T12:23:42.136Z,15.46
2023-04-23T12:26:13.867Z,15.45
2023-04-23T12:28:51.550Z,15.48
2023-04-23T12:31:23.552Z,15.51
2023-04-23T12:34:06.859Z,15.54
2023-04-23T12:36:39.939Z,15.56
2023-04-23T12:39:29.509Z,15.62
2023-04-23T12:42:00.330Z,15.73
2023-04-23T12:44:28.597Z,15.84
2023-04-23T12:47:00.695Z,15.94
2023-04-23T12:49:29.554Z,16.06
2023-04-23T12:51:57.940Z,16.12
2023-04-23T12:54:31.688Z,16.17
2023-04-23T12:57:02.124Z,16.24
2023-04-23T12:59:30.770Z,16.29
2023-04-23T13:02:02.427Z,16.37
2023-04-23T13:04:35.534Z,16.49
2023-04-23T13:07:03.876Z,16.59
2023-04-23T13:09:32.262Z,16.69
2023-04-23T13:12:01.106Z,16.83
2023-04-23T13:14:29.421Z,16.93
2023-04-23T13:17:00.822Z,17.03
2023-04-23T13:19:29.225Z,17.10
2023-04-23T13:21:57.392Z,17.16
2023-04-23T13:24:26.970Z,17.24
2023-04-23T13:26:55.608Z,17.32
2023-04-23T13:29:27.551Z,17.25
2023-04-23T13:31:56.070Z,17.17
2023-04-23T13:34:24.370Z,17.04
2023-04-23T13:36:52.332Z,16.87
2023-04-23T13:39:20.641Z,16.79
2023-04-23T13:41:59.050Z,16.77
2023-04-23T13:44:34.447Z,16.69
2023-04-23T13:47:02.796Z,16.62
2023-04-23T13:49:30.785Z,16.59
2023-04-23T13:52:01.215Z,16.54
2023-04-23T13:54:29.504Z,16.52
2023-04-23T13:56:57.378Z,16.47
2023-04-23T13:59:25.591Z,16.43
2023-04-23T14:01:53.385Z,16.44
2023-04-23T14:04:24.271Z,16.41
2023-04-23T14:06:53.032Z,16.41
2023-04-23T14:09:23.183Z,16.42
2023-04-23T14:11:51.209Z,16.41
2023-04-23T14:14:18.969Z,16.42
2023-04-23T14:16:46.911Z,16.41
2023-04-23T14:19:15.077Z,16.37
2023-04-23T14:21:42.965Z,16.34
2023-04-23T14:24:24.876Z,16.33
2023-04-23T14:26:52.546Z,16.28
2023-04-23T14:29:32.145Z,16.22
2023-04-23T14:31:59.965Z,16.14
2023-04-23T14:34:28.290Z,16.12
2023-04-23T14:36:56.939Z,16.12
2023-04-23T14:39:26.406Z,16.12
2023-04-23T14:41:54.788Z,16.14
2023-04-23T14:44:27.189Z,16.18
2023-04-23T14:46:57.795Z,16.24
2023-04-23T14:49:26.330Z,16.22
2023-04-23T14:51:55.714Z,16.24
2023-04-23T14:54:25.081Z,16.27
2023-04-23T14:56:55.206Z,16.32
2023-04-23T14:59:24.384Z,16.36
2023-04-23T15:01:53.708Z,16.38
2023-04-23T15:04:22.530Z,16.40
2023-04-23T15:06:51.951Z,16.42
2023-04-23T15:09:20.770Z,16.44
2023-04-23T15:11:49.885Z,16.47
2023-04-23T15:14:32.073Z,16.50
2023-04-23T15:17:01.517Z,16.52
2023-04-23T15:19:33.310Z,16.53
2023-04-23T15:22:03.119Z,16.54
2023-04-23T15:24:32.363Z,16.53
2023-04-23T15:27:01.310Z,16.50
2023-04-23T15:29:31.195Z,16.46
2023-04-23T15:32:01.079Z,16.43
2023-04-23T15:34:31.404Z,16.37
2023-04-23T15:37:01.002Z,16.30
2023-04-23T15:42:18.536Z,16.16
2023-04-23T15:51:02.150Z,15.96
2023-04-23T15:53:31.005Z,15.88
2023-04-23T15:55:59.911Z,15.80
2023-04-23T15:58:28.560Z,15.73
2023-04-23T16:00:57.040Z,15.67
2023-04-23T16:03:26.908Z,15.59
2023-04-23T16:05:55.119Z,15.53
2023-04-23T16:08:22.888Z,15.46
2023-04-23T16:10:51.540Z,15.40
2023-04-23T16:21:20.416Z,15.18
2023-04-23T16:23:49.658Z,15.11
2023-04-23T16:26:21.772Z,15.05
2023-04-23T16:28:56.330Z,15.00
2023-04-23T16:31:29.285Z,14.91
2023-04-23T16:33:58.227Z,14.83
2023-04-23T16:36:26.420Z,14.76
2023-04-23T16:38:54.721Z,14.69
2023-04-23T16:41:22.934Z,14.64
